sensor_id;sensor_type;location;lat;lon;timestamp;temperature;humidity
3186;DHT22;1604;53.700;10.252;2022-09-09T00:02:27;14.30;99.90
3186;DHT22;1604;53.700;10.252;2022-09-09T00:05:33;14.30;99.90
3186;DHT22;1604;53.700;10.252;2022-09-09T00:08:48;14.30;99.90
3186;DHT22;1604;53.700;10.252;2022-09-09T00:11:52;14.30;99.90
3186;DHT22;1604;53.700;10.252;2022-09-09T00:15:00;14.30;99.90
3186;DHT22;1604;53.700;10.252;2022-09-09T00:18:11;14.30;99.90
3186;DHT22;1604;53.700;10.252;2022-09-09T00:21:16;14.30;99.90
3186;DHT22;1604;53.700;10.252;2022-09-09T00:24:24;14.30;99.90
3186;DHT22;1604;53.700;10.252;2022-09-09T00:27:32;14.30;99.90
3186;DHT22;1604;53.700;10.252;2022-09-09T00:30:36;14.30;99.90
3186;DHT22;1604;53.700;10.252;2022-09-09T00:33:39;14.30;99.90
3186;DHT22;1604;53.700;10.252;2022-09-09T00:36:43;14.30;99.90
3186;DHT22;1604;53.700;10.252;2022-09-09T00:39:47;14.20;99.90
3186;DHT22;1604;53.700;10.252;2022-09-09T00:43:08;14.30;99.90
3186;DHT22;1604;53.700;10.252;2022-09-09T00:46:34;14.30;99.90
3186;DHT22;1604;53.700;10.252;2022-09-09T00:49:52;14.30;99.90
3186;DHT22;1604;53.700;10.252;2022-09-09T00:53:05;14.30;99.90
3186;DHT22;1604;53.700;10.252;2022-09-09T00:56:14;14.30;99.90
3186;DHT22;1604;53.700;10.252;2022-09-09T00:59:26;14.30;99.90
3186;DHT22;1604;53.700;10.252;2022-09-09T01:02:34;14.40;99.90
3186;DHT22;1604;53.700;10.252;2022-09-09T01:05:44;14.40;99.90
3186;DHT22;1604;53.700;10.252;2022-09-09T01:09:08;14.40;99.90
3186;DHT22;1604;53.700;10.252;2022-09-09T01:12:16;14.50;99.90
3186;DHT22;1604;53.700;10.252;2022-09-09T01:15:20;14.50;99.90
3186;DHT22;1604;53.700;10.252;2022-09-09T01:18:27;14.50;99.90
3186;DHT22;1604;53.700;10.252;2022-09-09T01:21:37;14.40;99.90
3186;DHT22;1604;53.700;10.252;2022-09-09T01:25:05;14.40;99.90
3186;DHT22;1604;53.700;10.252;2022-09-09T01:28:16;14.40;99.90
3186;DHT22;1604;53.700;10.252;2022-09-09T01:31:21;14.40;99.90
3186;DHT22;1604;53.700;10.252;2022-09-09T01:34:29;14.50;99.90
3186;DHT22;1604;53.700;10.252;2022-09-09T01:37:33;14.50;99.90
3186;DHT22;1604;53.700;10.252;2022-09-09T01:40:34;14.50;99.90
3186;DHT22;1604;53.700;10.252;2022-09-09T01:43:38;14.50;99.90
3186;DHT22;1604;53.700;10.252;2022-09-09T01:46:40;14.50;99.90
3186;DHT22;1604;53.700;10.252;2022-09-09T01:49:42;14.40;99.90
3186;DHT22;1604;53.700;10.252;2022-09-09T01:52:44;14.40;99.90
3186;DHT22;1604;53.700;10.252;2022-09-09T01:55:58;14.50;99.90
3186;DHT22;1604;53.700;10.252;2022-09-09T01:59:10;14.50;99.90
3186;DHT22;1604;53.700;10.252;2022-09-09T02:02:17;14.40;99.90
3186;DHT22;1604;53.700;10.252;2022-09-09T02:05:30;14.40;99.90
3186;DHT22;1604;53.700;10.252;2022-09-09T02:08:40;14.40;99.90
3186;DHT22;1604;53.700;10.252;2022-09-09T02:11:45;14.40;99.90
3186;DHT22;1604;53.700;10.252;2022-09-09T02:14:56;14.30;99.90
3186;DHT22;1604;53.700;10.252;2022-09-09T02:18:01;14.30;99.90
3186;DHT22;1604;53.700;10.252;2022-09-09T02:21:08;14.30;99.90
3186;DHT22;1604;53.700;10.252;2022-09-09T02:24:14;14.30;99.90
3186;DHT22;1604;53.700;10.252;2022-09-09T02:27:17;14.30;99.90
3186;DHT22;1604;53.700;10.252;2022-09-09T02:30:21;14.30;99.90
3186;DHT22;1604;53.700;10.252;2022-09-09T02:33:25;14.30;99.90
3186;DHT22;1604;53.700;10.252;2022-09-09T02:36:31;14.20;99.90
3186;DHT22;1604;53.700;10.252;2022-09-09T02:39:35;14.20;99.90
3186;DHT22;1604;53.700;10.252;2022-09-09T02:42:39;14.20;99.90
3186;DHT22;1604;53.700;10.252;2022-09-09T02:45:49;14.20;99.90
3186;DHT22;1604;53.700;10.252;2022-09-09T02:49:00;14.20;99.90
3186;DHT22;1604;53.700;10.252;2022-09-09T02:52:06;14.20;99.90
3186;DHT22;1604;53.700;10.252;2022-09-09T02:55:14;14.20;99.90
3186;DHT22;1604;53.700;10.252;2022-09-09T02:58:18;14.20;99.90
3186;DHT22;1604;53.700;10.252;2022-09-09T03:01:22;14.20;99.90
3186;DHT22;1604;53.700;10.252;2022-09-09T03:04:23;14.20;99.90
3186;DHT22;1604;53.700;10.252;2022-09-09T03:07:25;14.20;99.90
3186;DHT22;1604;53.700;10.252;2022-09-09T03:10:27;14.20;99.90
3186;DHT22;1604;53.700;10.252;2022-09-09T03:13:29;14.20;99.90
3186;DHT22;1604;53.700;10.252;2022-09-09T03:16:33;14.20;99.90
3186;DHT22;1604;53.700;10.252;2022-09-09T03:19:35;14.20;99.90
3186;DHT22;1604;53.700;10.252;2022-09-09T03:22:38;14.20;99.90
3186;DHT22;1604;53.700;10.252;2022-09-09T03:25:39;14.20;99.90
3186;DHT22;1604;53.700;10.252;2022-09-09T03:28:47;14.20;99.90
3186;DHT22;1604;53.700;10.252;2022-09-09T03:31:51;14.20;99.90
3186;DHT22;1604;53.700;10.252;2022-09-09T03:34:53;14.20;99.90
3186;DHT22;1604;53.700;10.252;2022-09-09T03:37:55;14.20;99.90
3186;DHT22;1604;53.700;10.252;2022-09-09T03:40:57;14.20;99.90
3186;DHT22;1604;53.700;10.252;2022-09-09T03:43:59;14.20;99.90
3186;DHT22;1604;53.700;10.252;2022-09-09T03:47:02;14.20;99.90
3186;DHT22;1604;53.700;10.252;2022-09-09T03:50:05;14.20;99.90
3186;DHT22;1604;53.700;10.252;2022-09-09T03:53:08;14.20;99.90
3186;DHT22;1604;53.700;10.252;2022-09-09T03:56:10;14.20;99.90
3186;DHT22;1604;53.700;10.252;2022-09-09T03:59:12;14.20;99.90
3186;DHT22;1604;53.700;10.252;2022-09-09T04:02:16;14.10;99.90
3186;DHT22;1604;53.700;10.252;2022-09-09T04:05:17;14.10;99.90
3186;DHT22;1604;53.700;10.252;2022-09-09T04:08:20;14.10;99.90
3186;DHT22;1604;53.700;10.252;2022-09-09T04:11:22;14.10;99.90
3186;DHT22;1604;53.700;10.252;2022-09-09T04:14:32;14.00;99.90
3186;DHT22;1604;53.700;10.252;2022-09-09T04:17:35;14.00;99.90
3186;DHT22;1604;53.700;10.252;2022-09-09T04:20:38;14.00;99.90
3186;DHT22;1604;53.700;10.252;2022-09-09T04:23:40;14.00;99.90
3186;DHT22;1604;53.700;10.252;2022-09-09T04:26:42;13.90;99.90
3186;DHT22;1604;53.700;10.252;2022-09-09T04:29:45;13.90;99.90
3186;DHT22;1604;53.700;10.252;2022-09-09T04:32:49;13.90;99.90
3186;DHT22;1604;53.700;10.252;2022-09-09T04:35:51;13.80;99.90
3186;DHT22;1604;53.700;10.252;2022-09-09T04:38:55;13.90;99.90
3186;DHT22;1604;53.700;10.252;2022-09-09T04:41:57;13.90;99.90
3186;DHT22;1604;53.700;10.252;2022-09-09T04:44:58;13.80;99.90
3186;DHT22;1604;53.700;10.252;2022-09-09T04:48:03;13.80;99.90
3186;DHT22;1604;53.700;10.252;2022-09-09T04:51:13;13.80;99.90
3186;DHT22;1604;53.700;10.252;2022-09-09T04:54:15;13.70;99.90
3186;DHT22;1604;53.700;10.252;2022-09-09T04:57:17;13.70;99.90
3186;DHT22;1604;53.700;10.252;2022-09-09T05:00:19;13.70;99.90
3186;DHT22;1604;53.700;10.252;2022-09-09T05:03:22;13.60;99.90
3186;DHT22;1604;53.700;10.252;2022-09-09T05:06:24;13.60;99.90
3186;DHT22;1604;53.700;10.252;2022-09-09T05:09:26;13.60;99.90
3186;DHT22;1604;53.700;10.252;2022-09-09T05:12:27;13.60;99.90
3186;DHT22;1604;53.700;10.252;2022-09-09T05:15:29;13.70;99.90
3186;DHT22;1604;53.700;10.252;2022-09-09T05:18:33;13.70;99.90
3186;DHT22;1604;53.700;10.252;2022-09-09T05:21:34;13.70;99.90
3186;DHT22;1604;53.700;10.252;2022-09-09T05:24:36;13.70;99.90
3186;DHT22;1604;53.700;10.252;2022-09-09T05:27:38;13.70;99.90
3186;DHT22;1604;53.700;10.252;2022-09-09T05:30:40;13.80;99.90
3186;DHT22;1604;53.700;10.252;2022-09-09T05:33:45;13.80;99.90
3186;DHT22;1604;53.700;10.252;2022-09-09T05:36:47;13.80;99.90
3186;DHT22;1604;53.700;10.252;2022-09-09T05:39:49;13.80;99.90
3186;DHT22;1604;53.700;10.252;2022-09-09T05:42:50;13.80;99.90
3186;DHT22;1604;53.700;10.252;2022-09-09T05:46:01;13.80;99.90
3186;DHT22;1604;53.700;10.252;2022-09-09T05:49:06;13.80;99.90
3186;DHT22;1604;53.700;10.252;2022-09-09T05:52:08;13.90;99.90
3186;DHT22;1604;53.700;10.252;2022-09-09T05:55:10;13.90;99.90
3186;DHT22;1604;53.700;10.252;2022-09-09T05:58:12;13.90;99.90
3186;DHT22;1604;53.700;10.252;2022-09-09T06:01:16;14.00;99.90
3186;DHT22;1604;53.700;10.252;2022-09-09T06:04:20;14.00;99.90
3186;DHT22;1604;53.700;10.252;2022-09-09T06:07:24;14.10;99.90
3186;DHT22;1604;53.700;10.252;2022-09-09T06:10:26;14.20;99.90
3186;DHT22;1604;53.700;10.252;2022-09-09T06:13:28;14.20;99.90
3186;DHT22;1604;53.700;10.252;2022-09-09T06:16:31;14.20;99.90
3186;DHT22;1604;53.700;10.252;2022-09-09T06:19:35;14.30;99.90
3186;DHT22;1604;53.700;10.252;2022-09-09T06:22:39;14.30;99.90
3186;DHT22;1604;53.700;10.252;2022-09-09T06:25:41;14.40;99.90
3186;DHT22;1604;53.700;10.252;2022-09-09T06:28:43;14.40;99.90
3186;DHT22;1604;53.700;10.252;2022-09-09T06:31:46;14.40;99.90
3186;DHT22;1604;53.700;10.252;2022-09-09T06:34:49;14.50;99.90
3186;DHT22;1604;53.700;10.252;2022-09-09T06:37:51;14.60;99.90
3186;DHT22;1604;53.700;10.252;2022-09-09T06:40:53;14.60;99.90
3186;DHT22;1604;53.700;10.252;2022-09-09T06:43:56;14.60;99.90
3186;DHT22;1604;53.700;10.252;2022-09-09T06:46:59;14.70;99.90
3186;DHT22;1604;53.700;10.252;2022-09-09T06:50:03;14.70;99.90
3186;DHT22;1604;53.700;10.252;2022-09-09T06:53:05;14.80;99.90
3186;DHT22;1604;53.700;10.252;2022-09-09T06:56:18;14.80;99.90
3186;DHT22;1604;53.700;10.252;2022-09-09T06:59:21;14.80;99.90
3186;DHT22;1604;53.700;10.252;2022-09-09T07:02:23;15.00;99.90
3186;DHT22;1604;53.700;10.252;2022-09-09T07:05:26;15.20;99.90
3186;DHT22;1604;53.700;10.252;2022-09-09T07:08:28;15.30;99.90
3186;DHT22;1604;53.700;10.252;2022-09-09T07:11:34;15.50;99.90
3186;DHT22;1604;53.700;10.252;2022-09-09T07:14:38;15.60;99.90
3186;DHT22;1604;53.700;10.252;2022-09-09T07:17:39;15.60;99.90
3186;DHT22;1604;53.700;10.252;2022-09-09T07:20:43;15.70;99.90
3186;DHT22;1604;53.700;10.252;2022-09-09T07:23:45;15.60;99.90
3186;DHT22;1604;53.700;10.252;2022-09-09T07:26:47;15.60;99.90
3186;DHT22;1604;53.700;10.252;2022-09-09T07:29:49;15.60;99.90
3186;DHT22;1604;53.700;10.252;2022-09-09T07:32:51;15.60;99.90
3186;DHT22;1604;53.700;10.252;2022-09-09T07:36:03;15.60;99.90
3186;DHT22;1604;53.700;10.252;2022-09-09T07:39:07;15.70;99.90
3186;DHT22;1604;53.700;10.252;2022-09-09T07:42:09;15.70;99.90
3186;DHT22;1604;53.700;10.252;2022-09-09T07:45:13;15.80;99.90
3186;DHT22;1604;53.700;10.252;2022-09-09T07:48:15;15.80;99.90
3186;DHT22;1604;53.700;10.252;2022-09-09T07:51:19;16.00;99.90
3186;DHT22;1604;53.700;10.252;2022-09-09T07:54:22;16.30;99.90
3186;DHT22;1604;53.700;10.252;2022-09-09T07:57:24;16.40;99.90
3186;DHT22;1604;53.700;10.252;2022-09-09T08:00:28;16.50;99.90
3186;DHT22;1604;53.700;10.252;2022-09-09T08:03:29;16.70;99.90
3186;DHT22;1604;53.700;10.252;2022-09-09T08:06:35;16.80;99.90
3186;DHT22;1604;53.700;10.252;2022-09-09T08:09:37;16.90;99.90
3186;DHT22;1604;53.700;10.252;2022-09-09T08:12:39;17.00;99.80
3186;DHT22;1604;53.700;10.252;2022-09-09T08:15:41;17.10;99.70
3186;DHT22;1604;53.700;10.252;2022-09-09T08:18:43;17.30;99.60
3186;DHT22;1604;53.700;10.252;2022-09-09T08:21:47;17.40;99.50
3186;DHT22;1604;53.700;10.252;2022-09-09T08:24:49;17.70;99.40
3186;DHT22;1604;53.700;10.252;2022-09-09T08:27:53;18.00;99.50
3186;DHT22;1604;53.700;10.252;2022-09-09T08:30:56;18.40;99.00
3186;DHT22;1604;53.700;10.252;2022-09-09T08:34:06;18.70;98.80
3186;DHT22;1604;53.700;10.252;2022-09-09T08:37:09;19.00;98.80
3186;DHT22;1604;53.700;10.252;2022-09-09T08:40:18;19.20;98.70
3186;DHT22;1604;53.700;10.252;2022-09-09T08:43:24;19.50;98.60
3186;DHT22;1604;53.700;10.252;2022-09-09T08:46:35;19.60;98.80
3186;DHT22;1604;53.700;10.252;2022-09-09T08:49:52;19.70;98.40
3186;DHT22;1604;53.700;10.252;2022-09-09T08:53:01;19.70;98.30
3186;DHT22;1604;53.700;10.252;2022-09-09T08:56:10;19.70;98.30
3186;DHT22;1604;53.700;10.252;2022-09-09T08:59:16;19.70;98.30
3186;DHT22;1604;53.700;10.252;2022-09-09T09:02:23;19.70;98.30
3186;DHT22;1604;53.700;10.252;2022-09-09T09:05:32;19.70;98.20
3186;DHT22;1604;53.700;10.252;2022-09-09T09:08:43;19.70;98.10
3186;DHT22;1604;53.700;10.252;2022-09-09T09:11:50;19.60;98.30
3186;DHT22;1604;53.700;10.252;2022-09-09T09:14:53;19.60;98.30
3186;DHT22;1604;53.700;10.252;2022-09-09T09:17:56;19.60;98.20
3186;DHT22;1604;53.700;10.252;2022-09-09T09:21:05;19.60;98.10
3186;DHT22;1604;53.700;10.252;2022-09-09T09:24:19;19.70;97.90
3186;DHT22;1604;53.700;10.252;2022-09-09T09:27:32;19.70;97.80
3186;DHT22;1604;53.700;10.252;2022-09-09T09:30:38;19.80;97.70
3186;DHT22;1604;53.700;10.252;2022-09-09T09:33:47;19.90;97.60
3186;DHT22;1604;53.700;10.252;2022-09-09T09:36:53;20.00;97.80
3186;DHT22;1604;53.700;10.252;2022-09-09T09:40:08;20.20;97.80
3186;DHT22;1604;53.700;10.252;2022-09-09T09:43:19;20.30;97.40
3186;DHT22;1604;53.700;10.252;2022-09-09T09:46:24;20.50;97.20
3186;DHT22;1604;53.700;10.252;2022-09-09T09:49:26;20.60;96.80
3186;DHT22;1604;53.700;10.252;2022-09-09T09:52:30;20.60;96.90
3186;DHT22;1604;53.700;10.252;2022-09-09T09:55:36;20.90;97.00
3186;DHT22;1604;53.700;10.252;2022-09-09T09:58:50;21.20;95.60
3186;DHT22;1604;53.700;10.252;2022-09-09T10:01:53;21.30;95.10
3186;DHT22;1604;53.700;10.252;2022-09-09T10:05:04;21.20;94.90
3186;DHT22;1604;53.700;10.252;2022-09-09T10:08:10;21.20;95.40
3186;DHT22;1604;53.700;10.252;2022-09-09T10:11:26;21.10;94.40
3186;DHT22;1604;53.700;10.252;2022-09-09T10:14:38;21.10;95.00
3186;DHT22;1604;53.700;10.252;2022-09-09T10:17:52;21.10;95.20
3186;DHT22;1604;53.700;10.252;2022-09-09T10:21:02;21.00;95.00
3186;DHT22;1604;53.700;10.252;2022-09-09T10:24:24;21.10;95.10
3186;DHT22;1604;53.700;10.252;2022-09-09T10:27:41;21.20;95.30
3186;DHT22;1604;53.700;10.252;2022-09-09T10:30:54;21.40;95.50
3186;DHT22;1604;53.700;10.252;2022-09-09T10:34:03;21.80;95.10
3186;DHT22;1604;53.700;10.252;2022-09-09T10:37:22;22.20;92.80
3186;DHT22;1604;53.700;10.252;2022-09-09T10:40:32;22.40;91.70
3186;DHT22;1604;53.700;10.252;2022-09-09T10:44:15;22.60;91.30
3186;DHT22;1604;53.700;10.252;2022-09-09T10:47:34;22.90;89.60
3186;DHT22;1604;53.700;10.252;2022-09-09T10:50:55;23.20;88.10
3186;DHT22;1604;53.700;10.252;2022-09-09T10:54:17;23.30;87.00
3186;DHT22;1604;53.700;10.252;2022-09-09T10:57:27;23.50;86.30
3186;DHT22;1604;53.700;10.252;2022-09-09T11:00:41;23.70;83.30
3186;DHT22;1604;53.700;10.252;2022-09-09T11:03:51;23.90;83.20
3186;DHT22;1604;53.700;10.252;2022-09-09T11:06:56;24.10;80.60
3186;DHT22;1604;53.700;10.252;2022-09-09T11:10:02;24.10;81.90
3186;DHT22;1604;53.700;10.252;2022-09-09T11:13:11;24.20;82.20
3186;DHT22;1604;53.700;10.252;2022-09-09T11:16:24;24.30;81.00
3186;DHT22;1604;53.700;10.252;2022-09-09T11:19:30;24.70;80.10
3186;DHT22;1604;53.700;10.252;2022-09-09T11:22:37;24.90;77.50
3186;DHT22;1604;53.700;10.252;2022-09-09T11:25:44;24.70;79.50
3186;DHT22;1604;53.700;10.252;2022-09-09T11:28:58;24.70;79.50
3186;DHT22;1604;53.700;10.252;2022-09-09T11:32:14;24.70;78.40
3186;DHT22;1604;53.700;10.252;2022-09-09T11:35:30;24.50;80.10
3186;DHT22;1604;53.700;10.252;2022-09-09T11:38:41;24.30;80.00
3186;DHT22;1604;53.700;10.252;2022-09-09T11:41:46;24.10;82.70
3186;DHT22;1604;53.700;10.252;2022-09-09T11:44:48;24.10;81.90
3186;DHT22;1604;53.700;10.252;2022-09-09T11:47:56;24.00;81.90
3186;DHT22;1604;53.700;10.252;2022-09-09T11:51:00;24.00;81.30
3186;DHT22;1604;53.700;10.252;2022-09-09T11:54:28;23.80;83.40
3186;DHT22;1604;53.700;10.252;2022-09-09T11:57:32;23.80;81.00
3186;DHT22;1604;53.700;10.252;2022-09-09T12:00:37;23.60;81.70
3186;DHT22;1604;53.700;10.252;2022-09-09T12:03:45;23.50;82.60
3186;DHT22;1604;53.700;10.252;2022-09-09T12:06:51;23.40;83.80
3186;DHT22;1604;53.700;10.252;2022-09-09T12:09:57;23.20;84.50
3186;DHT22;1604;53.700;10.252;2022-09-09T12:13:15;23.10;83.50
3186;DHT22;1604;53.700;10.252;2022-09-09T12:16:29;23.00;85.90
3186;DHT22;1604;53.700;10.252;2022-09-09T12:19:34;23.10;85.90
3186;DHT22;1604;53.700;10.252;2022-09-09T12:22:47;23.30;85.00
3186;DHT22;1604;53.700;10.252;2022-09-09T12:26:08;23.60;85.00
3186;DHT22;1604;53.700;10.252;2022-09-09T12:29:24;23.80;83.00
3186;DHT22;1604;53.700;10.252;2022-09-09T12:32:27;24.00;82.50
3186;DHT22;1604;53.700;10.252;2022-09-09T12:35:31;24.00;81.70
3186;DHT22;1604;53.700;10.252;2022-09-09T12:38:37;24.00;80.60
3186;DHT22;1604;53.700;10.252;2022-09-09T12:41:40;24.00;81.50
3186;DHT22;1604;53.700;10.252;2022-09-09T12:44:51;24.00;80.80
3186;DHT22;1604;53.700;10.252;2022-09-09T12:47:56;23.90;81.10
3186;DHT22;1604;53.700;10.252;2022-09-09T12:51:00;23.80;82.00
3186;DHT22;1604;53.700;10.252;2022-09-09T12:54:03;23.80;83.00
3186;DHT22;1604;53.700;10.252;2022-09-09T12:57:08;23.80;85.00
3186;DHT22;1604;53.700;10.252;2022-09-09T13:00:15;23.80;85.10
3186;DHT22;1604;53.700;10.252;2022-09-09T13:03:19;23.90;80.90
3186;DHT22;1604;53.700;10.252;2022-09-09T13:06:24;23.60;82.50
3186;DHT22;1604;53.700;10.252;2022-09-09T13:09:27;23.30;84.20
3186;DHT22;1604;53.700;10.252;2022-09-09T13:12:29;23.10;86.00
3186;DHT22;1604;53.700;10.252;2022-09-09T13:15:31;22.90;86.90
3186;DHT22;1604;53.700;10.252;2022-09-09T13:18:35;22.70;88.10
3186;DHT22;1604;53.700;10.252;2022-09-09T13:21:39;22.60;89.00
3186;DHT22;1604;53.700;10.252;2022-09-09T13:24:43;22.50;90.00
3186;DHT22;1604;53.700;10.252;2022-09-09T13:27:54;22.50;90.20
3186;DHT22;1604;53.700;10.252;2022-09-09T13:30:57;22.50;90.90
3186;DHT22;1604;53.700;10.252;2022-09-09T13:34:10;22.60;90.50
3186;DHT22;1604;53.700;10.252;2022-09-09T13:37:22;22.50;91.60
3186;DHT22;1604;53.700;10.252;2022-09-09T13:40:25;22.30;92.20
3186;DHT22;1604;53.700;10.252;2022-09-09T13:43:29;22.20;92.30
3186;DHT22;1604;53.700;10.252;2022-09-09T13:46:34;22.10;92.80
3186;DHT22;1604;53.700;10.252;2022-09-09T13:49:43;22.00;94.00
3186;DHT22;1604;53.700;10.252;2022-09-09T13:52:47;21.90;93.80
3186;DHT22;1604;53.700;10.252;2022-09-09T13:55:50;21.80;94.20
3186;DHT22;1604;53.700;10.252;2022-09-09T13:58:52;21.70;95.10
3186;DHT22;1604;53.700;10.252;2022-09-09T14:01:54;21.80;94.40
3186;DHT22;1604;53.700;10.252;2022-09-09T14:04:55;21.60;95.90
3186;DHT22;1604;53.700;10.252;2022-09-09T14:07:59;21.30;96.60
3186;DHT22;1604;53.700;10.252;2022-09-09T14:11:01;21.00;97.00
3186;DHT22;1604;53.700;10.252;2022-09-09T14:14:02;20.80;97.30
3186;DHT22;1604;53.700;10.252;2022-09-09T14:17:05;20.60;97.60
3186;DHT22;1604;53.700;10.252;2022-09-09T14:20:08;20.40;97.70
3186;DHT22;1604;53.700;10.252;2022-09-09T14:23:12;20.20;97.80
3186;DHT22;1604;53.700;10.252;2022-09-09T14:26:14;20.10;97.90
3186;DHT22;1604;53.700;10.252;2022-09-09T14:29:16;20.00;98.10
3186;DHT22;1604;53.700;10.252;2022-09-09T14:32:18;19.90;98.20
3186;DHT22;1604;53.700;10.252;2022-09-09T14:35:20;19.70;98.30
3186;DHT22;1604;53.700;10.252;2022-09-09T14:38:24;19.60;98.50
3186;DHT22;1604;53.700;10.252;2022-09-09T14:41:26;19.60;98.50
3186;DHT22;1604;53.700;10.252;2022-09-09T14:44:29;19.50;98.50
3186;DHT22;1604;53.700;10.252;2022-09-09T14:47:38;19.40;98.60
3186;DHT22;1604;53.700;10.252;2022-09-09T14:50:47;19.30;98.60
3186;DHT22;1604;53.700;10.252;2022-09-09T14:53:53;19.20;98.70
3186;DHT22;1604;53.700;10.252;2022-09-09T14:56:55;19.10;98.80
3186;DHT22;1604;53.700;10.252;2022-09-09T14:59:58;19.10;98.80
3186;DHT22;1604;53.700;10.252;2022-09-09T15:03:00;19.00;98.80
3186;DHT22;1604;53.700;10.252;2022-09-09T15:06:05;19.00;98.90
3186;DHT22;1604;53.700;10.252;2022-09-09T15:09:10;18.90;98.90
3186;DHT22;1604;53.700;10.252;2022-09-09T15:12:12;18.90;98.90
3186;DHT22;1604;53.700;10.252;2022-09-09T15:15:15;18.90;98.90
3186;DHT22;1604;53.700;10.252;2022-09-09T15:18:16;18.80;99.00
3186;DHT22;1604;53.700;10.252;2022-09-09T15:21:21;18.60;98.90
3186;DHT22;1604;53.700;10.252;2022-09-09T15:24:24;18.50;99.10
3186;DHT22;1604;53.700;10.252;2022-09-09T15:27:27;18.40;99.10
3186;DHT22;1604;53.700;10.252;2022-09-09T15:30:31;18.30;99.10
3186;DHT22;1604;53.700;10.252;2022-09-09T15:33:33;18.20;99.20
3186;DHT22;1604;53.700;10.252;2022-09-09T15:36:38;18.10;99.40
3186;DHT22;1604;53.700;10.252;2022-09-09T15:39:41;18.10;99.40
3186;DHT22;1604;53.700;10.252;2022-09-09T15:42:45;18.00;99.50
3186;DHT22;1604;53.700;10.252;2022-09-09T15:45:51;18.00;99.50
3186;DHT22;1604;53.700;10.252;2022-09-09T15:48:57;18.00;99.50
3186;DHT22;1604;53.700;10.252;2022-09-09T15:51:59;17.90;99.50
3186;DHT22;1604;53.700;10.252;2022-09-09T15:55:06;17.90;99.50
3186;DHT22;1604;53.700;10.252;2022-09-09T15:58:08;18.00;99.60
3186;DHT22;1604;53.700;10.252;2022-09-09T16:01:12;17.90;99.60
3186;DHT22;1604;53.700;10.252;2022-09-09T16:04:15;17.90;99.60
3186;DHT22;1604;53.700;10.252;2022-09-09T16:07:23;17.90;99.60
3186;DHT22;1604;53.700;10.252;2022-09-09T16:10:26;17.90;99.60
3186;DHT22;1604;53.700;10.252;2022-09-09T16:13:28;17.80;99.60
3186;DHT22;1604;53.700;10.252;2022-09-09T16:16:30;17.80;99.60
3186;DHT22;1604;53.700;10.252;2022-09-09T16:19:32;17.80;99.60
3186;DHT22;1604;53.700;10.252;2022-09-09T16:22:35;17.80;99.60
3186;DHT22;1604;53.700;10.252;2022-09-09T16:25:38;17.80;99.60
3186;DHT22;1604;53.700;10.252;2022-09-09T16:28:40;17.80;99.70
3186;DHT22;1604;53.700;10.252;2022-09-09T16:31:43;17.80;99.70
3186;DHT22;1604;53.700;10.252;2022-09-09T16:34:45;17.90;99.70
3186;DHT22;1604;53.700;10.252;2022-09-09T16:37:47;17.90;99.60
3186;DHT22;1604;53.700;10.252;2022-09-09T16:40:50;17.90;99.60
3186;DHT22;1604;53.700;10.252;2022-09-09T16:43:54;17.90;99.60
3186;DHT22;1604;53.700;10.252;2022-09-09T16:46:56;17.90;99.60
3186;DHT22;1604;53.700;10.252;2022-09-09T16:49:58;18.00;99.60
3186;DHT22;1604;53.700;10.252;2022-09-09T16:53:00;17.90;99.50
3186;DHT22;1604;53.700;10.252;2022-09-09T16:56:07;17.90;99.50
3186;DHT22;1604;53.700;10.252;2022-09-09T16:59:11;17.90;99.40
3186;DHT22;1604;53.700;10.252;2022-09-09T17:02:13;17.90;99.40
3186;DHT22;1604;53.700;10.252;2022-09-09T17:05:15;17.80;99.40
3186;DHT22;1604;53.700;10.252;2022-09-09T17:08:18;17.80;99.50
3186;DHT22;1604;53.700;10.252;2022-09-09T17:11:21;17.80;99.50
3186;DHT22;1604;53.700;10.252;2022-09-09T17:14:24;17.80;99.50
3186;DHT22;1604;53.700;10.252;2022-09-09T17:17:25;17.80;99.50
3186;DHT22;1604;53.700;10.252;2022-09-09T17:20:28;17.70;99.50
3186;DHT22;1604;53.700;10.252;2022-09-09T17:23:29;17.70;99.60
3186;DHT22;1604;53.700;10.252;2022-09-09T17:26:33;17.70;99.60
3186;DHT22;1604;53.700;10.252;2022-09-09T17:29:35;17.60;99.70
3186;DHT22;1604;53.700;10.252;2022-09-09T17:32:37;17.60;99.70
3186;DHT22;1604;53.700;10.252;2022-09-09T17:35:43;17.50;99.70
3186;DHT22;1604;53.700;10.252;2022-09-09T17:38:46;17.50;99.70
3186;DHT22;1604;53.700;10.252;2022-09-09T17:41:53;17.40;99.80
3186;DHT22;1604;53.700;10.252;2022-09-09T17:44:55;17.40;99.80
3186;DHT22;1604;53.700;10.252;2022-09-09T17:47:57;17.30;99.80
3186;DHT22;1604;53.700;10.252;2022-09-09T17:50:59;17.30;99.80
3186;DHT22;1604;53.700;10.252;2022-09-09T17:54:04;17.20;99.90
3186;DHT22;1604;53.700;10.252;2022-09-09T17:57:07;17.20;99.90
3186;DHT22;1604;53.700;10.252;2022-09-09T18:00:10;17.10;99.90
3186;DHT22;1604;53.700;10.252;2022-09-09T18:03:12;17.00;99.90
3186;DHT22;1604;53.700;10.252;2022-09-09T18:06:17;17.00;99.90
3186;DHT22;1604;53.700;10.252;2022-09-09T18:09:21;16.90;99.90
3186;DHT22;1604;53.700;10.252;2022-09-09T18:12:25;16.90;99.90
3186;DHT22;1604;53.700;10.252;2022-09-09T18:15:28;16.80;99.90
3186;DHT22;1604;53.700;10.252;2022-09-09T18:18:32;16.70;99.90
3186;DHT22;1604;53.700;10.252;2022-09-09T18:21:35;16.60;99.90
3186;DHT22;1604;53.700;10.252;2022-09-09T18:24:36;16.50;99.90
3186;DHT22;1604;53.700;10.252;2022-09-09T18:27:40;16.50;99.90
3186;DHT22;1604;53.700;10.252;2022-09-09T18:30:42;16.40;99.90
3186;DHT22;1604;53.700;10.252;2022-09-09T18:33:46;16.30;99.90
3186;DHT22;1604;53.700;10.252;2022-09-09T18:36:49;16.20;99.90
3186;DHT22;1604;53.700;10.252;2022-09-09T18:39:53;16.10;99.90
3186;DHT22;1604;53.700;10.252;2022-09-09T18:42:57;16.10;99.90
3186;DHT22;1604;53.700;10.252;2022-09-09T18:46:03;16.00;99.90
3186;DHT22;1604;53.700;10.252;2022-09-09T18:49:06;15.90;99.90
3186;DHT22;1604;53.700;10.252;2022-09-09T18:52:09;15.80;99.90
3186;DHT22;1604;53.700;10.252;2022-09-09T18:55:10;15.80;99.90
3186;DHT22;1604;53.700;10.252;2022-09-09T18:58:14;15.70;99.90
3186;DHT22;1604;53.700;10.252;2022-09-09T19:01:16;15.70;99.90
3186;DHT22;1604;53.700;10.252;2022-09-09T19:04:19;15.60;99.90
3186;DHT22;1604;53.700;10.252;2022-09-09T19:07:22;15.60;99.90
3186;DHT22;1604;53.700;10.252;2022-09-09T19:10:23;15.50;99.90
3186;DHT22;1604;53.700;10.252;2022-09-09T19:13:27;15.50;99.90
3186;DHT22;1604;53.700;10.252;2022-09-09T19:16:30;15.40;99.90
3186;DHT22;1604;53.700;10.252;2022-09-09T19:19:34;15.30;99.90
3186;DHT22;1604;53.700;10.252;2022-09-09T19:22:36;15.30;99.90
3186;DHT22;1604;53.700;10.252;2022-09-09T19:25:39;15.30;99.90
3186;DHT22;1604;53.700;10.252;2022-09-09T19:28:42;15.20;99.90
3186;DHT22;1604;53.700;10.252;2022-09-09T19:31:47;15.20;99.90
3186;DHT22;1604;53.700;10.252;2022-09-09T19:34:49;15.10;99.90
3186;DHT22;1604;53.700;10.252;2022-09-09T19:37:52;15.10;99.90
3186;DHT22;1604;53.700;10.252;2022-09-09T19:40:54;15.10;99.90
3186;DHT22;1604;53.700;10.252;2022-09-09T19:44:00;15.00;99.90
3186;DHT22;1604;53.700;10.252;2022-09-09T19:47:02;15.00;99.90
3186;DHT22;1604;53.700;10.252;2022-09-09T19:50:05;15.00;99.90